createdAt,value
2018-09-26T00:01:05.401Z,1.20
2018-09-26T00:03:39.554Z,1.50
2018-09-26T00:06:06.766Z,1.50
2018-09-26T00:08:34.023Z,1.30
2018-09-26T00:11:01.215Z,1.20
2018-09-26T00:13:28.340Z,1.50
2018-09-26T00:15:55.503Z,1.20
2018-09-26T00:18:22.669Z,1.50
2018-09-26T00:20:49.808Z,1.20
2018-09-26T00:23:17.013Z,1.50
2018-09-26T00:25:44.232Z,1.87
2018-09-26T00:28:11.438Z,1.37
2018-09-26T00:30:38.571Z,1.40
2018-09-26T00:33:05.756Z,1.60
2018-09-26T00:35:33.832Z,1.50
2018-09-26T00:38:01.042Z,1.50
2018-09-26T00:40:28.293Z,1.40
2018-09-26T00:42:56.353Z,1.40
2018-09-26T00:45:23.655Z,1.33
2018-09-26T00:47:51.009Z,1.30
2018-09-26T00:50:18.117Z,1.33
2018-09-26T00:52:45.341Z,1.47
2018-09-26T00:55:12.451Z,1.50
2018-09-26T00:57:39.710Z,1.60
2018-09-26T01:00:07.675Z,1.40
2018-09-26T01:02:34.908Z,1.10
2018-09-26T01:05:02.441Z,1.40
2018-09-26T01:07:29.647Z,1.60
2018-09-26T01:09:56.885Z,1.50
2018-09-26T01:12:24.171Z,1.13
2018-09-26T01:14:51.381Z,1.20
2018-09-26T01:17:18.570Z,1.87
2018-09-26T01:19:45.719Z,1.33
2018-09-26T01:22:12.926Z,1.57
2018-09-26T01:24:40.220Z,1.30
2018-09-26T01:27:07.638Z,1.70
2018-09-26T01:29:34.809Z,1.20
2018-09-26T01:32:02.099Z,1.33
2018-09-26T01:34:29.357Z,1.90
2018-09-26T01:36:56.733Z,1.60
2018-09-26T01:39:24.217Z,1.50
2018-09-26T01:41:51.402Z,1.20
2018-09-26T01:44:18.545Z,1.30
2018-09-26T01:46:45.971Z,1.40
2018-09-26T01:49:13.237Z,1.30
2018-09-26T01:51:40.401Z,1.17
2018-09-26T01:54:07.638Z,1.70
2018-09-26T01:56:34.846Z,1.50
2018-09-26T01:59:02.096Z,1.30
2018-09-26T02:01:29.340Z,1.50
2018-09-26T02:03:56.599Z,1.20
2018-09-26T02:06:23.884Z,1.53
2018-09-26T02:08:51.150Z,1.30
2018-09-26T02:11:18.394Z,1.43
2018-09-26T02:13:45.842Z,1.50
2018-09-26T02:16:13.137Z,1.60
2018-09-26T02:18:40.277Z,1.20
2018-09-26T02:21:07.507Z,1.33
2018-09-26T02:23:34.721Z,1.43
2018-09-26T02:26:01.943Z,1.60
2018-09-26T02:28:29.148Z,1.60
2018-09-26T02:30:56.312Z,2.40
2018-09-26T02:33:23.827Z,2.30
2018-09-26T02:35:51.054Z,2.20
2018-09-26T02:38:18.216Z,1.60
2018-09-26T02:40:45.430Z,2.00
2018-09-26T02:43:12.598Z,1.40
2018-09-26T02:45:39.759Z,1.60
2018-09-26T02:48:06.945Z,1.70
2018-09-26T02:50:34.172Z,1.40
2018-09-26T02:53:01.372Z,2.03
2018-09-26T02:55:28.531Z,1.77
2018-09-26T02:57:55.685Z,1.63
2018-09-26T03:00:22.814Z,1.60
2018-09-26T03:02:49.972Z,1.50
2018-09-26T03:05:17.091Z,1.40
2018-09-26T03:07:44.312Z,1.80
2018-09-26T03:10:11.424Z,1.43
2018-09-26T03:12:38.574Z,1.60
2018-09-26T03:15:05.698Z,1.40
2018-09-26T03:17:32.860Z,1.40
2018-09-26T03:20:00.044Z,2.40
2018-09-26T03:22:27.163Z,2.60
2018-09-26T03:24:54.302Z,3.07
2018-09-26T03:27:21.408Z,2.40
2018-09-26T03:29:48.530Z,2.20
2018-09-26T03:32:15.764Z,2.40
2018-09-26T03:34:42.955Z,3.10
2018-09-26T03:37:10.081Z,2.77
2018-09-26T03:39:37.282Z,2.10
2018-09-26T03:42:04.438Z,1.63
2018-09-26T03:44:31.604Z,2.20
2018-09-26T03:46:58.733Z,2.00
2018-09-26T03:49:25.955Z,2.37
2018-09-26T03:51:53.106Z,2.37
2018-09-26T03:54:20.227Z,2.20
2018-09-26T03:56:47.358Z,2.60
2018-09-26T03:59:14.502Z,1.77
2018-09-26T04:01:41.645Z,2.00
2018-09-26T04:04:08.990Z,2.67
2018-09-26T04:06:36.213Z,1.37
2018-09-26T04:09:05.124Z,1.77
2018-09-26T04:11:32.260Z,1.60
2018-09-26T04:13:59.410Z,1.53
2018-09-26T04:16:26.598Z,1.63
2018-09-26T04:18:53.725Z,1.47
2018-09-26T04:21:20.874Z,1.40
2018-09-26T04:23:47.989Z,1.93
2018-09-26T04:26:15.233Z,2.50
2018-09-26T04:28:42.396Z,2.60
2018-09-26T04:31:09.692Z,2.20
2018-09-26T04:33:36.898Z,1.97
2018-09-26T04:36:04.297Z,1.70
2018-09-26T04:38:31.492Z,2.20
2018-09-26T04:40:58.646Z,1.97
2018-09-26T04:43:26.557Z,2.60
2018-09-26T04:45:53.723Z,2.57
2018-09-26T04:48:20.997Z,2.20
2018-09-26T04:50:48.135Z,2.23
2018-09-26T04:53:19.236Z,2.30
2018-09-26T04:55:46.699Z,1.70
2018-09-26T04:58:13.881Z,2.30
2018-09-26T05:00:41.181Z,2.27
2018-09-26T05:03:08.979Z,2.80
2018-09-26T05:05:36.137Z,3.53
2018-09-26T05:08:03.484Z,3.73
2018-09-26T05:10:31.091Z,3.67
2018-09-26T05:12:58.231Z,4.47
2018-09-26T05:15:25.398Z,3.10
2018-09-26T05:17:52.530Z,3.43
2018-09-26T05:20:19.649Z,3.40
2018-09-26T05:22:46.871Z,2.80
2018-09-26T05:25:13.979Z,3.30
2018-09-26T05:27:41.129Z,2.30
2018-09-26T05:30:08.308Z,1.90
2018-09-26T05:32:35.548Z,3.00
2018-09-26T05:35:02.756Z,4.70
2018-09-26T05:37:29.922Z,2.70
2018-09-26T05:39:57.137Z,2.37
2018-09-26T05:42:24.915Z,2.30
2018-09-26T05:44:52.063Z,2.23
2018-09-26T05:47:19.238Z,2.40
2018-09-26T05:49:47.051Z,2.60
2018-09-26T05:52:14.224Z,4.77
2018-09-26T05:54:41.499Z,3.67
2018-09-26T05:57:08.859Z,2.77
2018-09-26T05:59:36.167Z,2.67
2018-09-26T06:02:03.273Z,3.47
2018-09-26T06:04:30.541Z,2.17
2018-09-26T06:06:57.751Z,2.43
2018-09-26T06:09:25.003Z,2.43
2018-09-26T06:11:52.358Z,2.50
2018-09-26T06:14:20.063Z,4.37
2018-09-26T06:16:47.386Z,2.40
2018-09-26T06:19:14.768Z,2.00
2018-09-26T06:21:42.045Z,1.97
2018-09-26T06:24:09.641Z,2.93
2018-09-26T06:26:37.014Z,2.60
2018-09-26T06:29:04.293Z,2.20
2018-09-26T06:31:31.578Z,2.37
2018-09-26T06:33:58.943Z,2.00
2018-09-26T06:36:26.200Z,2.17
2018-09-26T06:38:53.563Z,2.20
2018-09-26T06:41:20.893Z,1.60
2018-09-26T06:43:48.271Z,2.00
2018-09-26T06:46:15.519Z,2.60
2018-09-26T06:48:42.770Z,2.30
2018-09-26T06:51:10.105Z,2.10
2018-09-26T06:53:37.375Z,2.50
2018-09-26T06:56:04.783Z,2.27
2018-09-26T06:58:32.182Z,3.40
2018-09-26T07:00:59.497Z,2.60
2018-09-26T07:03:26.726Z,2.87
2018-09-26T07:05:53.898Z,3.90
2018-09-26T07:08:21.266Z,2.70
2018-09-26T07:10:48.414Z,3.10
2018-09-26T07:13:15.936Z,3.50
2018-09-26T07:15:43.100Z,2.70
2018-09-26T07:18:10.291Z,3.20
2018-09-26T07:20:38.027Z,3.20
2018-09-26T07:23:05.329Z,2.90
2018-09-26T07:25:32.498Z,3.30
2018-09-26T07:28:00.141Z,2.40
2018-09-26T07:30:27.394Z,3.20
2018-09-26T07:32:54.631Z,2.53
2018-09-26T07:35:21.747Z,3.57
2018-09-26T07:37:48.986Z,2.90
2018-09-26T07:40:16.272Z,3.13
2018-09-26T07:42:43.497Z,3.90
2018-09-26T07:45:10.881Z,4.43
2018-09-26T07:47:38.271Z,3.20
2018-09-26T07:50:05.788Z,3.30
2018-09-26T07:52:33.242Z,2.67
2018-09-26T07:55:00.637Z,2.70
2018-09-26T07:57:27.806Z,3.20
2018-09-26T07:59:55.201Z,3.40
2018-09-26T08:02:22.439Z,3.20
2018-09-26T08:04:49.651Z,3.30
2018-09-26T08:07:16.944Z,2.73
2018-09-26T08:09:44.179Z,2.80
2018-09-26T08:12:11.415Z,3.20
2018-09-26T08:14:38.803Z,3.20
2018-09-26T08:17:05.971Z,3.07
2018-09-26T08:19:33.386Z,3.00
2018-09-26T08:22:00.621Z,2.93
2018-09-26T08:24:27.890Z,2.83
2018-09-26T08:26:55.194Z,2.67
2018-09-26T08:29:22.465Z,2.33
2018-09-26T08:31:49.850Z,2.37
2018-09-26T08:34:17.157Z,2.97
2018-09-26T08:36:44.356Z,1.90
2018-09-26T08:39:12.886Z,1.90
2018-09-26T08:41:40.171Z,3.40
2018-09-26T08:44:07.634Z,2.37
2018-09-26T08:46:34.840Z,1.73
2018-09-26T08:49:02.088Z,1.73
2018-09-26T08:51:29.374Z,2.50
2018-09-26T08:53:56.605Z,2.00
2018-09-26T08:56:23.845Z,2.13
2018-09-26T08:58:51.072Z,1.77
2018-09-26T09:01:24.117Z,1.90
2018-09-26T09:03:51.441Z,1.67
2018-09-26T09:06:18.827Z,1.80
2018-09-26T09:08:46.015Z,2.03
2018-09-26T09:11:13.363Z,1.80
2018-09-26T09:13:40.549Z,1.70
2018-09-26T09:16:08.077Z,2.37
2018-09-26T09:18:35.325Z,3.17
2018-09-26T09:21:03.819Z,1.90
2018-09-26T09:23:31.463Z,3.07
2018-09-26T09:25:58.676Z,1.30
2018-09-26T09:28:25.924Z,1.80
2018-09-26T09:30:53.254Z,1.60
2018-09-26T09:33:20.620Z,1.40
2018-09-26T09:35:47.928Z,2.00
2018-09-26T09:38:15.294Z,1.70
2018-09-26T09:40:42.528Z,2.00
2018-09-26T09:43:09.939Z,2.00
2018-09-26T09:45:37.454Z,1.60
2018-09-26T09:48:04.703Z,1.83
2018-09-26T09:50:31.962Z,1.90
2018-09-26T09:52:59.253Z,2.03
2018-09-26T09:55:26.547Z,2.87
2018-09-26T09:57:53.924Z,2.50
2018-09-26T10:00:25.706Z,1.93
2018-09-26T10:02:53.138Z,2.60
2018-09-26T10:05:20.241Z,1.60
2018-09-26T10:07:47.443Z,1.60
2018-09-26T10:10:14.653Z,2.10
2018-09-26T10:12:41.852Z,1.47
2018-09-26T10:15:09.099Z,1.47
2018-09-26T10:17:36.414Z,1.60
2018-09-26T10:20:03.749Z,1.77
2018-09-26T10:22:30.965Z,2.47
2018-09-26T10:24:58.292Z,1.90
2018-09-26T10:27:25.451Z,1.47
2018-09-26T10:29:52.806Z,1.73
2018-09-26T10:32:20.043Z,2.10
2018-09-26T10:34:47.376Z,1.80
2018-09-26T10:37:14.616Z,1.60
2018-09-26T10:39:41.857Z,1.40
2018-09-26T10:42:09.591Z,1.40
2018-09-26T10:44:36.860Z,2.10
2018-09-26T10:47:04.433Z,1.70
2018-09-26T10:49:32.454Z,1.30
2018-09-26T10:51:59.675Z,1.80
2018-09-26T10:54:26.864Z,1.60
2018-09-26T10:56:54.070Z,1.50
2018-09-26T10:59:21.368Z,1.60
2018-09-26T11:01:48.813Z,1.10
2018-09-26T11:04:16.716Z,1.40
2018-09-26T11:06:43.907Z,1.33
2018-09-26T11:09:11.494Z,1.80
2018-09-26T11:11:39.144Z,1.60
2018-09-26T11:14:06.448Z,1.63
2018-09-26T11:16:33.754Z,1.60
2018-09-26T11:19:01.339Z,1.60
2018-09-26T11:21:28.498Z,1.67
2018-09-26T11:23:55.871Z,2.07
2018-09-26T11:26:23.400Z,1.37
2018-09-26T11:28:50.664Z,3.33
2018-09-26T11:31:17.942Z,1.50
2018-09-26T11:33:45.756Z,1.40
2018-09-26T11:36:12.908Z,1.77
2018-09-26T11:38:40.131Z,3.20
2018-09-26T11:41:07.458Z,1.40
2018-09-26T11:43:34.662Z,1.30
2018-09-26T11:46:01.938Z,1.53
2018-09-26T11:48:29.192Z,1.43
2018-09-26T11:51:02.919Z,1.50
2018-09-26T11:53:30.555Z,1.80
2018-09-26T11:55:58.967Z,1.33
2018-09-26T11:58:26.423Z,1.73
2018-09-26T12:00:53.782Z,1.60
2018-09-26T12:03:22.117Z,1.50
2018-09-26T12:05:49.323Z,2.00
2018-09-26T12:08:16.621Z,1.93
2018-09-26T12:10:43.811Z,1.70
2018-09-26T12:13:11.084Z,1.67
2018-09-26T12:15:38.275Z,1.30
2018-09-26T12:18:05.587Z,1.50
2018-09-26T12:20:32.798Z,1.20
2018-09-26T12:23:00.072Z,1.57
2018-09-26T12:25:27.357Z,1.80
2018-09-26T12:27:54.667Z,1.90
2018-09-26T12:30:22.041Z,1.40
2018-09-26T12:32:49.186Z,1.83
2018-09-26T12:35:16.416Z,2.20
2018-09-26T12:37:43.720Z,1.73
2018-09-26T12:40:10.977Z,1.30
2018-09-26T12:42:39.248Z,1.50
2018-09-26T12:45:06.472Z,1.63
2018-09-26T12:47:33.816Z,1.80
2018-09-26T12:50:01.140Z,2.20
2018-09-26T12:52:28.412Z,2.27
2018-09-26T12:54:56.442Z,1.83
2018-09-26T12:57:23.820Z,1.63
2018-09-26T12:59:51.276Z,1.87
2018-09-26T13:02:18.657Z,1.67
2018-09-26T13:04:45.879Z,1.63
2018-09-26T13:07:13.211Z,1.50
2018-09-26T13:09:40.646Z,1.90
2018-09-26T13:12:08.009Z,1.60
2018-09-26T13:14:35.271Z,1.50
2018-09-26T13:17:02.768Z,1.50
2018-09-26T13:19:30.223Z,1.30
2018-09-26T13:21:57.886Z,1.63
2018-09-26T13:24:25.209Z,2.30
2018-09-26T13:26:52.434Z,2.00
2018-09-26T13:29:19.703Z,2.10
2018-09-26T13:31:47.101Z,1.80
2018-09-26T13:34:14.398Z,2.80
2018-09-26T13:36:41.601Z,1.50
2018-09-26T13:39:09.021Z,1.30
2018-09-26T13:41:36.253Z,1.87
2018-09-26T13:44:03.547Z,2.07
2018-09-26T13:46:30.803Z,1.53
2018-09-26T13:48:58.066Z,1.90
2018-09-26T13:51:25.343Z,3.00
2018-09-26T13:53:52.678Z,2.00
2018-09-26T13:56:19.907Z,2.03
2018-09-26T13:58:47.192Z,2.00
2018-09-26T14:01:14.411Z,1.60
2018-09-26T14:03:42.429Z,1.63
2018-09-26T14:06:09.706Z,1.70
2018-09-26T14:08:37.343Z,1.97
2018-09-26T14:11:04.612Z,1.60
2018-09-26T14:13:31.868Z,1.63
2018-09-26T14:15:59.169Z,1.83
2018-09-26T14:18:26.465Z,1.90
2018-09-26T14:20:53.686Z,2.03
2018-09-26T14:23:21.045Z,2.00
2018-09-26T14:25:48.659Z,1.70
2018-09-26T14:28:15.933Z,2.40
2018-09-26T14:30:43.383Z,1.63
2018-09-26T14:33:11.030Z,1.70
2018-09-26T14:35:38.264Z,2.00
2018-09-26T14:38:05.576Z,1.97
2018-09-26T14:40:32.770Z,3.03
2018-09-26T14:43:00.274Z,1.83
2018-09-26T14:45:27.606Z,2.13
2018-09-26T14:47:55.581Z,2.03
2018-09-26T14:50:23.162Z,1.70
2018-09-26T14:52:50.329Z,2.17
2018-09-26T14:55:17.460Z,2.00
2018-09-26T14:57:45.082Z,2.07
2018-09-26T15:00:13.221Z,2.50
2018-09-26T15:02:40.503Z,2.00
2018-09-26T15:05:07.947Z,2.13
2018-09-26T15:07:35.431Z,2.77
2018-09-26T15:10:02.618Z,1.73
2018-09-26T15:12:29.942Z,2.10
2018-09-26T15:14:57.126Z,2.50
2018-09-26T15:17:24.563Z,2.30
2018-09-26T15:19:51.784Z,2.00
2018-09-26T15:22:19.063Z,1.90
2018-09-26T15:24:46.393Z,2.43
2018-09-26T15:27:13.625Z,1.60
2018-09-26T15:29:40.830Z,1.60
2018-09-26T15:32:08.340Z,2.40
2018-09-26T15:34:35.712Z,1.80
2018-09-26T15:37:03.136Z,2.07
2018-09-26T15:39:30.406Z,2.27
2018-09-26T15:41:57.711Z,2.10
2018-09-26T15:44:25.090Z,1.60
2018-09-26T15:46:53.833Z,1.90
2018-09-26T15:49:21.072Z,2.13
2018-09-26T15:51:48.477Z,3.03
2018-09-26T15:54:15.808Z,2.13
2018-09-26T15:56:42.997Z,2.50
2018-09-26T15:59:10.597Z,2.20
2018-09-26T16:01:37.824Z,2.50
2018-09-26T16:04:05.061Z,1.77
2018-09-26T16:06:32.281Z,1.80
2018-09-26T16:08:59.562Z,2.17
2018-09-26T16:11:27.352Z,1.70
2018-09-26T16:13:54.527Z,2.00
2018-09-26T16:16:21.757Z,2.10
2018-09-26T16:18:49.110Z,1.83
2018-09-26T16:21:16.396Z,3.10
2018-09-26T16:23:43.645Z,3.00
2018-09-26T16:26:10.954Z,2.30
2018-09-26T16:28:38.117Z,2.70
2018-09-26T16:31:05.641Z,2.20
2018-09-26T16:33:32.949Z,3.97
2018-09-26T16:36:00.343Z,3.00
2018-09-26T16:38:27.753Z,4.13
2018-09-26T16:40:55.078Z,2.63
2018-09-26T16:43:22.396Z,2.67
2018-09-26T16:45:50.134Z,2.50
2018-09-26T16:48:17.345Z,2.43
2018-09-26T16:50:44.531Z,3.47
2018-09-26T16:53:11.766Z,3.00
2018-09-26T16:55:39.026Z,2.20
2018-09-26T16:58:06.274Z,3.37
2018-09-26T17:00:33.627Z,2.80
2018-09-26T17:03:01.038Z,2.20
2018-09-26T17:05:28.389Z,2.20
2018-09-26T17:07:55.632Z,2.33
2018-09-26T17:10:22.891Z,2.40
2018-09-26T17:12:50.096Z,2.37
2018-09-26T17:15:17.363Z,2.33
2018-09-26T17:17:44.605Z,2.27
2018-09-26T17:20:11.948Z,3.07
2018-09-26T17:22:39.373Z,2.60
2018-09-26T17:25:06.707Z,3.10
2018-09-26T17:27:34.021Z,2.80
2018-09-26T17:30:01.179Z,2.40
2018-09-26T17:32:28.407Z,2.40
2018-09-26T17:34:55.641Z,2.43
2018-09-26T17:37:22.953Z,2.40
2018-09-26T17:39:50.114Z,2.63
2018-09-26T17:42:17.561Z,3.03
2018-09-26T17:44:44.902Z,2.53
2018-09-26T17:47:12.438Z,2.50
2018-09-26T17:49:39.744Z,2.23
2018-09-26T17:52:06.943Z,2.50
2018-09-26T17:54:34.299Z,2.60
2018-09-26T17:57:01.468Z,2.53
2018-09-26T17:59:28.717Z,2.30
2018-09-26T18:01:56.136Z,2.23
2018-09-26T18:04:23.449Z,2.07
2018-09-26T18:06:58.249Z,2.07
2018-09-26T18:09:25.456Z,2.47
2018-09-26T18:11:52.604Z,1.90
2018-09-26T18:14:19.854Z,2.63
2018-09-26T18:16:47.094Z,2.17
2018-09-26T18:19:14.293Z,2.70
2018-09-26T18:21:41.487Z,2.77
2018-09-26T18:24:08.872Z,2.20
2018-09-26T18:26:36.126Z,2.67
2018-09-26T18:29:03.515Z,2.50
2018-09-26T18:31:30.864Z,2.07
2018-09-26T18:33:58.163Z,2.40
2018-09-26T18:36:25.570Z,2.10
2018-09-26T18:38:52.995Z,2.30
2018-09-26T18:41:20.154Z,2.63
2018-09-26T18:43:47.472Z,2.40
2018-09-26T18:46:16.464Z,2.30
2018-09-26T18:48:43.746Z,2.10
2018-09-26T18:51:11.447Z,2.23
2018-09-26T18:53:38.796Z,2.60
2018-09-26T18:56:06.163Z,2.80
2018-09-26T18:58:33.417Z,2.70
2018-09-26T19:01:00.696Z,2.30
2018-09-26T19:03:28.039Z,2.10
2018-09-26T19:05:55.370Z,2.03
2018-09-26T19:08:22.659Z,2.20
2018-09-26T19:10:49.931Z,2.47
2018-09-26T19:13:17.106Z,1.93
2018-09-26T19:15:44.341Z,1.80
2018-09-26T19:18:11.619Z,1.90
2018-09-26T19:20:39.077Z,2.10
2018-09-26T19:23:06.372Z,2.47
2018-09-26T19:25:33.672Z,2.40
2018-09-26T19:28:00.999Z,2.03
2018-09-26T19:30:28.409Z,2.27
2018-09-26T19:32:55.784Z,2.53
2018-09-26T19:35:23.092Z,2.50
2018-09-26T19:37:50.411Z,2.20
2018-09-26T19:40:17.754Z,1.93
2018-09-26T19:42:44.930Z,2.70
2018-09-26T19:45:12.290Z,2.80
2018-09-26T19:47:39.465Z,3.23
2018-09-26T19:50:06.762Z,3.20
2018-09-26T19:52:34.040Z,2.67
2018-09-26T19:55:01.414Z,2.50
2018-09-26T19:57:29.055Z,2.70
2018-09-26T19:59:56.385Z,2.60
2018-09-26T20:02:23.624Z,2.53
2018-09-26T20:04:50.867Z,2.30
2018-09-26T20:07:18.074Z,2.50
2018-09-26T20:09:45.267Z,2.40
2018-09-26T20:12:12.495Z,2.70
2018-09-26T20:14:39.697Z,2.47
2018-09-26T20:17:06.910Z,2.97
2018-09-26T20:19:35.207Z,2.30
2018-09-26T20:22:02.483Z,2.43
2018-09-26T20:24:30.692Z,2.40
2018-09-26T20:26:57.957Z,2.43
2018-09-26T20:29:25.388Z,2.40
2018-09-26T20:31:52.665Z,3.77
2018-09-26T20:34:19.879Z,3.90
2018-09-26T20:36:47.094Z,4.07
2018-09-26T20:39:14.354Z,4.80
2018-09-26T20:41:41.635Z,3.20
2018-09-26T20:44:09.078Z,3.00
2018-09-26T20:46:36.329Z,2.40
2018-09-26T20:49:03.562Z,2.67
2018-09-26T20:51:31.120Z,2.90
2018-09-26T20:53:58.291Z,2.97
2018-09-26T20:56:25.625Z,2.50
2018-09-26T20:58:52.835Z,2.80
2018-09-26T21:01:20.096Z,2.33
2018-09-26T21:03:47.283Z,2.33
2018-09-26T21:06:14.489Z,2.70
2018-09-26T21:08:41.789Z,2.67
2018-09-26T21:11:09.014Z,2.57
2018-09-26T21:13:36.258Z,2.43
2018-09-26T21:16:03.443Z,2.60
2018-09-26T21:18:30.702Z,2.40
2018-09-26T21:20:58.514Z,2.40
2018-09-26T21:23:25.781Z,2.50
2018-09-26T21:25:52.949Z,2.17
2018-09-26T21:28:20.169Z,2.20
2018-09-26T21:30:47.482Z,2.30
2018-09-26T21:33:14.739Z,2.20
2018-09-26T21:35:41.916Z,2.30
2018-09-26T21:38:09.109Z,2.50
2018-09-26T21:40:36.243Z,2.20
2018-09-26T21:43:03.434Z,2.10
2018-09-26T21:45:30.633Z,2.80
2018-09-26T21:47:57.958Z,2.00
2018-09-26T21:50:25.157Z,1.90
2018-09-26T21:52:52.393Z,2.17
2018-09-26T21:55:19.576Z,2.80
2018-09-26T21:57:46.745Z,2.33
2018-09-26T22:00:14.186Z,1.97
2018-09-26T22:02:41.456Z,3.20
2018-09-26T22:05:08.735Z,2.20
2018-09-26T22:07:36.029Z,2.17
2018-09-26T22:10:03.317Z,2.47
2018-09-26T22:12:30.674Z,2.10
2018-09-26T22:14:57.932Z,2.67
2018-09-26T22:17:25.276Z,2.80
2018-09-26T22:19:52.535Z,2.23
2018-09-26T22:22:19.765Z,2.30
2018-09-26T22:24:47.061Z,2.57
2018-09-26T22:27:14.408Z,2.47
2018-09-26T22:29:41.665Z,2.40
2018-09-26T22:32:08.859Z,2.90
2018-09-26T22:34:36.153Z,2.60
2018-09-26T22:37:03.314Z,2.43
2018-09-26T22:39:30.653Z,2.37
2018-09-26T22:41:57.828Z,2.00
2018-09-26T22:44:25.055Z,2.43
2018-09-26T22:46:52.265Z,2.50
2018-09-26T22:49:19.670Z,2.50
2018-09-26T22:51:46.927Z,2.57
2018-09-26T22:54:14.249Z,2.27
2018-09-26T22:56:41.919Z,2.53
2018-09-26T22:59:09.337Z,2.10
2018-09-26T23:01:36.553Z,2.40
2018-09-26T23:04:03.801Z,2.77
2018-09-26T23:06:31.069Z,2.23
2018-09-26T23:08:58.299Z,2.20
2018-09-26T23:11:25.646Z,2.37
2018-09-26T23:13:52.826Z,2.50
2018-09-26T23:16:20.460Z,2.20
2018-09-26T23:18:47.844Z,2.20
2018-09-26T23:21:15.129Z,2.20
2018-09-26T23:23:42.801Z,2.43
2018-09-26T23:26:10.012Z,2.40
2018-09-26T23:28:37.339Z,2.30
2018-09-26T23:31:04.791Z,2.07
2018-09-26T23:33:32.291Z,2.63
2018-09-26T23:35:59.667Z,2.27
2018-09-26T23:38:27.006Z,2.50
2018-09-26T23:40:54.438Z,2.10
2018-09-26T23:43:22.051Z,2.20
2018-09-26T23:45:49.497Z,2.07
2018-09-26T23:48:16.811Z,2.33
2018-09-26T23:50:44.094Z,2.07
2018-09-26T23:53:11.265Z,2.17
2018-09-26T23:55:38.523Z,2.27
2018-09-26T23:58:05.764Z,2.30
